sensor_id;sensor_type;location;lat;lon;timestamp;pressure;altitude;pressure_sealevel;temperature;humidity
77799;BME280;66989;50.426;15.352;2024-02-26T00:00:33;96903.41;;;1.62;100.00
77799;BME280;66989;50.426;15.352;2024-02-26T00:03:00;96900.19;;;1.59;100.00
77799;BME280;66989;50.426;15.352;2024-02-26T00:05:25;96898.59;;;1.56;100.00
77799;BME280;66989;50.426;15.352;2024-02-26T00:07:51;96893.59;;;1.53;100.00
77799;BME280;66989;50.426;15.352;2024-02-26T00:10:16;96890.16;;;1.53;100.00
77799;BME280;66989;50.426;15.352;2024-02-26T00:12:41;96889.25;;;1.54;100.00
77799;BME280;66989;50.426;15.352;2024-02-26T00:15:08;96889.31;;;1.52;100.00
77799;BME280;66989;50.426;15.352;2024-02-26T00:17:34;96891.09;;;1.52;100.00
77799;BME280;66989;50.426;15.352;2024-02-26T00:19:59;96891.94;;;1.52;100.00
77799;BME280;66989;50.426;15.352;2024-02-26T00:22:26;96892.75;;;1.53;100.00
77799;BME280;66989;50.426;15.352;2024-02-26T00:24:51;96891.09;;;1.52;100.00
77799;BME280;66989;50.426;15.352;2024-02-26T00:27:16;96885.06;;;1.51;100.00
77799;BME280;66989;50.426;15.352;2024-02-26T00:29:42;96886.84;;;1.51;100.00
77799;BME280;66989;50.426;15.352;2024-02-26T00:32:07;96889.44;;;1.51;100.00
77799;BME280;66989;50.426;15.352;2024-02-26T00:34:33;96891.31;;;1.49;100.00
77799;BME280;66989;50.426;15.352;2024-02-26T00:36:58;96883.59;;;1.47;100.00
77799;BME280;66989;50.426;15.352;2024-02-26T00:39:23;96880.97;;;1.47;100.00
77799;BME280;66989;50.426;15.352;2024-02-26T00:41:48;96876.72;;;1.46;100.00
77799;BME280;66989;50.426;15.352;2024-02-26T00:44:14;96876.72;;;1.46;100.00
77799;BME280;66989;50.426;15.352;2024-02-26T00:46:39;96878.38;;;1.47;100.00
77799;BME280;66989;50.426;15.352;2024-02-26T00:49:05;96885.25;;;1.48;100.00
77799;BME280;66989;50.426;15.352;2024-02-26T00:51:30;96878.31;;;1.49;100.00
77799;BME280;66989;50.426;15.352;2024-02-26T00:53:56;96873.00;;;1.50;100.00
77799;BME280;66989;50.426;15.352;2024-02-26T00:56:21;96877.44;;;1.48;100.00
77799;BME280;66989;50.426;15.352;2024-02-26T00:58:47;96876.81;;;1.44;100.00
77799;BME280;66989;50.426;15.352;2024-02-26T01:01:12;96873.47;;;1.42;100.00
77799;BME280;66989;50.426;15.352;2024-02-26T01:03:37;96877.84;;;1.42;100.00
77799;BME280;66989;50.426;15.352;2024-02-26T01:06:03;96867.00;;;1.35;100.00
77799;BME280;66989;50.426;15.352;2024-02-26T01:08:28;96870.69;;;1.31;100.00
77799;BME280;66989;50.426;15.352;2024-02-26T01:10:54;96866.00;;;1.24;100.00
77799;BME280;66989;50.426;15.352;2024-02-26T01:13:19;96866.38;;;1.17;100.00
77799;BME280;66989;50.426;15.352;2024-02-26T01:15:45;96859.75;;;1.12;100.00
77799;BME280;66989;50.426;15.352;2024-02-26T01:18:10;96869.69;;;1.05;100.00
77799;BME280;66989;50.426;15.352;2024-02-26T01:20:35;96863.09;;;1.00;100.00
77799;BME280;66989;50.426;15.352;2024-02-26T01:23:01;96865.81;;;0.98;100.00
77799;BME280;66989;50.426;15.352;2024-02-26T01:25:27;96855.69;;;0.93;100.00
77799;BME280;66989;50.426;15.352;2024-02-26T01:27:53;96847.25;;;0.90;100.00
77799;BME280;66989;50.426;15.352;2024-02-26T01:30:18;96841.44;;;0.86;100.00
77799;BME280;66989;50.426;15.352;2024-02-26T01:32:43;96851.16;;;0.83;100.00
77799;BME280;66989;50.426;15.352;2024-02-26T01:35:09;96847.72;;;0.82;100.00
77799;BME280;66989;50.426;15.352;2024-02-26T01:37:37;96845.13;;;0.82;100.00
77799;BME280;66989;50.426;15.352;2024-02-26T01:40:02;96850.03;;;0.87;100.00
77799;BME280;66989;50.426;15.352;2024-02-26T01:42:31;96842.25;;;0.87;100.00
77799;BME280;66989;50.426;15.352;2024-02-26T01:44:58;96846.31;;;0.91;100.00
77799;BME280;66989;50.426;15.352;2024-02-26T01:47:23;96842.06;;;0.90;100.00
77799;BME280;66989;50.426;15.352;2024-02-26T01:49:49;96836.78;;;0.91;100.00
77799;BME280;66989;50.426;15.352;2024-02-26T01:52:15;96841.06;;;0.92;100.00
77799;BME280;66989;50.426;15.352;2024-02-26T01:54:42;96837.63;;;0.92;100.00
77799;BME280;66989;50.426;15.352;2024-02-26T01:57:09;96838.38;;;0.94;100.00
77799;BME280;66989;50.426;15.352;2024-02-26T01:59:35;96833.91;;;0.96;100.00
77799;BME280;66989;50.426;15.352;2024-02-26T02:02:03;96835.59;;;0.97;100.00
77799;BME280;66989;50.426;15.352;2024-02-26T02:04:29;96838.75;;;1.02;100.00
77799;BME280;66989;50.426;15.352;2024-02-26T02:06:55;96837.59;;;1.06;100.00
77799;BME280;66989;50.426;15.352;2024-02-26T02:09:22;96831.97;;;1.14;100.00
77799;BME280;66989;50.426;15.352;2024-02-26T02:11:48;96828.88;;;1.21;100.00
77799;BME280;66989;50.426;15.352;2024-02-26T02:14:14;96829.16;;;1.31;100.00
77799;BME280;66989;50.426;15.352;2024-02-26T02:16:39;96837.22;;;1.41;100.00
77799;BME280;66989;50.426;15.352;2024-02-26T02:19:05;96822.28;;;1.44;100.00
77799;BME280;66989;50.426;15.352;2024-02-26T02:21:30;96827.75;;;1.54;100.00
77799;BME280;66989;50.426;15.352;2024-02-26T02:23:55;96811.78;;;1.60;100.00
77799;BME280;66989;50.426;15.352;2024-02-26T02:26:21;96818.25;;;1.67;100.00
77799;BME280;66989;50.426;15.352;2024-02-26T02:28:47;96816.84;;;1.76;100.00
77799;BME280;66989;50.426;15.352;2024-02-26T02:31:14;96819.03;;;1.82;100.00
77799;BME280;66989;50.426;15.352;2024-02-26T02:33:40;96813.53;;;1.87;100.00
77799;BME280;66989;50.426;15.352;2024-02-26T02:36:05;96812.31;;;1.92;100.00
77799;BME280;66989;50.426;15.352;2024-02-26T02:38:35;96814.81;;;1.94;100.00
77799;BME280;66989;50.426;15.352;2024-02-26T02:41:00;96805.16;;;1.96;100.00
77799;BME280;66989;50.426;15.352;2024-02-26T02:43:26;96807.47;;;2.01;100.00
77799;BME280;66989;50.426;15.352;2024-02-26T02:45:51;96801.22;;;2.03;100.00
77799;BME280;66989;50.426;15.352;2024-02-26T02:48:16;96792.47;;;2.04;100.00
77799;BME280;66989;50.426;15.352;2024-02-26T02:50:42;96800.81;;;2.09;100.00
77799;BME280;66989;50.426;15.352;2024-02-26T02:53:07;96806.78;;;2.11;100.00
77799;BME280;66989;50.426;15.352;2024-02-26T02:55:32;96805.00;;;2.12;100.00
77799;BME280;66989;50.426;15.352;2024-02-26T02:57:58;96803.94;;;2.14;100.00
77799;BME280;66989;50.426;15.352;2024-02-26T03:00:23;96798.44;;;2.19;100.00
77799;BME280;66989;50.426;15.352;2024-02-26T03:02:49;96796.28;;;2.25;100.00
77799;BME280;66989;50.426;15.352;2024-02-26T03:05:15;96800.16;;;2.33;100.00
77799;BME280;66989;50.426;15.352;2024-02-26T03:07:40;96795.38;;;2.39;100.00
77799;BME280;66989;50.426;15.352;2024-02-26T03:10:06;96799.22;;;2.46;100.00
77799;BME280;66989;50.426;15.352;2024-02-26T03:12:33;96802.25;;;2.53;100.00
77799;BME280;66989;50.426;15.352;2024-02-26T03:14:58;96801.84;;;2.59;100.00
77799;BME280;66989;50.426;15.352;2024-02-26T03:17:25;96798.09;;;2.63;100.00
77799;BME280;66989;50.426;15.352;2024-02-26T03:19:51;96803.31;;;2.63;100.00
77799;BME280;66989;50.426;15.352;2024-02-26T03:22:19;96807.56;;;2.64;100.00
77799;BME280;66989;50.426;15.352;2024-02-26T03:24:45;96805.81;;;2.65;100.00
77799;BME280;66989;50.426;15.352;2024-02-26T03:27:11;96803.91;;;2.67;100.00
77799;BME280;66989;50.426;15.352;2024-02-26T03:29:37;96812.34;;;2.70;100.00
77799;BME280;66989;50.426;15.352;2024-02-26T03:32:03;96807.03;;;2.72;100.00
77799;BME280;66989;50.426;15.352;2024-02-26T03:34:28;96811.94;;;2.76;100.00
77799;BME280;66989;50.426;15.352;2024-02-26T03:36:55;96811.75;;;2.80;100.00
77799;BME280;66989;50.426;15.352;2024-02-26T03:39:20;96820.06;;;2.85;100.00
77799;BME280;66989;50.426;15.352;2024-02-26T03:41:47;96814.88;;;2.85;100.00
77799;BME280;66989;50.426;15.352;2024-02-26T03:44:13;96810.38;;;2.87;100.00
77799;BME280;66989;50.426;15.352;2024-02-26T03:46:38;96804.03;;;2.91;100.00
77799;BME280;66989;50.426;15.352;2024-02-26T03:49:03;96801.22;;;2.94;100.00
77799;BME280;66989;50.426;15.352;2024-02-26T03:51:29;96801.84;;;2.97;100.00
77799;BME280;66989;50.426;15.352;2024-02-26T03:53:57;96800.56;;;3.03;100.00
77799;BME280;66989;50.426;15.352;2024-02-26T03:56:23;96794.44;;;3.04;100.00
77799;BME280;66989;50.426;15.352;2024-02-26T03:58:49;96802.28;;;3.04;100.00
77799;BME280;66989;50.426;15.352;2024-02-26T04:01:14;96796.00;;;3.07;100.00
77799;BME280;66989;50.426;15.352;2024-02-26T04:03:40;96799.53;;;3.06;100.00
77799;BME280;66989;50.426;15.352;2024-02-26T04:06:08;96804.63;;;3.07;100.00
77799;BME280;66989;50.426;15.352;2024-02-26T04:08:35;96812.44;;;3.07;100.00
77799;BME280;66989;50.426;15.352;2024-02-26T04:11:00;96810.78;;;3.06;100.00
77799;BME280;66989;50.426;15.352;2024-02-26T04:13:25;96810.78;;;3.06;100.00
77799;BME280;66989;50.426;15.352;2024-02-26T04:15:51;96807.47;;;3.04;100.00
77799;BME280;66989;50.426;15.352;2024-02-26T04:18:16;96804.75;;;3.06;100.00
77799;BME280;66989;50.426;15.352;2024-02-26T04:20:41;96803.94;;;3.05;100.00
77799;BME280;66989;50.426;15.352;2024-02-26T04:23:07;96807.03;;;3.10;100.00
77799;BME280;66989;50.426;15.352;2024-02-26T04:25:33;96804.44;;;3.10;100.00
77799;BME280;66989;50.426;15.352;2024-02-26T04:27:58;96799.94;;;3.12;100.00
77799;BME280;66989;50.426;15.352;2024-02-26T04:30:23;96804.22;;;3.13;100.00
77799;BME280;66989;50.426;15.352;2024-02-26T04:32:49;96804.97;;;3.15;100.00
77799;BME280;66989;50.426;15.352;2024-02-26T04:35:14;96804.84;;;3.17;100.00
77799;BME280;66989;50.426;15.352;2024-02-26T04:37:39;96815.06;;;3.20;100.00
77799;BME280;66989;50.426;15.352;2024-02-26T04:40:05;96802.88;;;3.20;100.00
77799;BME280;66989;50.426;15.352;2024-02-26T04:42:31;96797.66;;;3.20;100.00
77799;BME280;66989;50.426;15.352;2024-02-26T04:44:56;96799.13;;;3.24;100.00
77799;BME280;66989;50.426;15.352;2024-02-26T04:47:22;96803.25;;;3.27;100.00
77799;BME280;66989;50.426;15.352;2024-02-26T04:49:49;96800.47;;;3.30;100.00
77799;BME280;66989;50.426;15.352;2024-02-26T04:52:14;96802.22;;;3.29;100.00
77799;BME280;66989;50.426;15.352;2024-02-26T04:54:40;96798.69;;;3.30;100.00
77799;BME280;66989;50.426;15.352;2024-02-26T04:57:05;96795.97;;;3.32;100.00
77799;BME280;66989;50.426;15.352;2024-02-26T04:59:30;96794.19;;;3.33;100.00
77799;BME280;66989;50.426;15.352;2024-02-26T05:01:56;96793.25;;;3.34;100.00
77799;BME280;66989;50.426;15.352;2024-02-26T05:04:21;96798.56;;;3.32;100.00
77799;BME280;66989;50.426;15.352;2024-02-26T05:06:46;96793.34;;;3.32;100.00
77799;BME280;66989;50.426;15.352;2024-02-26T05:09:12;96794.94;;;3.35;100.00
77799;BME280;66989;50.426;15.352;2024-02-26T05:11:37;96795.75;;;3.35;100.00
77799;BME280;66989;50.426;15.352;2024-02-26T05:14:02;96793.75;;;3.39;100.00
77799;BME280;66989;50.426;15.352;2024-02-26T05:16:29;96801.78;;;3.36;100.00
77799;BME280;66989;50.426;15.352;2024-02-26T05:18:57;96794.69;;;3.38;100.00
77799;BME280;66989;50.426;15.352;2024-02-26T05:21:22;96801.69;;;3.37;100.00
77799;BME280;66989;50.426;15.352;2024-02-26T05:23:48;96798.25;;;3.37;100.00
77799;BME280;66989;50.426;15.352;2024-02-26T05:26:22;96798.25;;;3.37;100.00
77799;BME280;66989;50.426;15.352;2024-02-26T05:28:48;96802.63;;;3.36;100.00
77799;BME280;66989;50.426;15.352;2024-02-26T05:31:16;96805.94;;;3.38;100.00
77799;BME280;66989;50.426;15.352;2024-02-26T05:33:41;96802.50;;;3.38;100.00
77799;BME280;66989;50.426;15.352;2024-02-26T05:36:07;96810.94;;;3.41;100.00
77799;BME280;66989;50.426;15.352;2024-02-26T05:38:32;96810.84;;;3.43;100.00
77799;BME280;66989;50.426;15.352;2024-02-26T05:40:58;96814.19;;;3.45;100.00
77799;BME280;66989;50.426;15.352;2024-02-26T05:43:25;96818.13;;;3.50;100.00
77799;BME280;66989;50.426;15.352;2024-02-26T05:45:50;96809.97;;;3.55;100.00
77799;BME280;66989;50.426;15.352;2024-02-26T05:48:16;96813.81;;;3.62;100.00
77799;BME280;66989;50.426;15.352;2024-02-26T05:50:41;96824.75;;;3.67;100.00
77799;BME280;66989;50.426;15.352;2024-02-26T05:53:06;96821.56;;;3.75;100.00
77799;BME280;66989;50.426;15.352;2024-02-26T05:55:32;96827.91;;;3.83;100.00
77799;BME280;66989;50.426;15.352;2024-02-26T05:57:57;96823.00;;;3.92;100.00
77799;BME280;66989;50.426;15.352;2024-02-26T06:00:23;96832.03;;;3.99;100.00
77799;BME280;66989;50.426;15.352;2024-02-26T06:02:48;96825.53;;;4.04;100.00
77799;BME280;66989;50.426;15.352;2024-02-26T06:05:13;96834.22;;;4.16;100.00
77799;BME280;66989;50.426;15.352;2024-02-26T06:07:39;96827.53;;;4.25;100.00
77799;BME280;66989;50.426;15.352;2024-02-26T06:10:05;96841.44;;;4.37;100.00
77799;BME280;66989;50.426;15.352;2024-02-26T06:12:30;96841.72;;;4.45;100.00
77799;BME280;66989;50.426;15.352;2024-02-26T06:14:56;96846.47;;;4.51;100.00
77799;BME280;66989;50.426;15.352;2024-02-26T06:17:21;96844.97;;;4.59;99.86
77799;BME280;66989;50.426;15.352;2024-02-26T06:19:47;96847.25;;;4.64;99.55
77799;BME280;66989;50.426;15.352;2024-02-26T06:22:12;96851.25;;;4.68;99.34
77799;BME280;66989;50.426;15.352;2024-02-26T06:24:37;96845.69;;;4.73;99.17
77799;BME280;66989;50.426;15.352;2024-02-26T06:27:03;96852.25;;;4.78;98.90
77799;BME280;66989;50.426;15.352;2024-02-26T06:29:28;96857.03;;;4.84;98.45
77799;BME280;66989;50.426;15.352;2024-02-26T06:31:55;96860.13;;;4.90;98.30
77799;BME280;66989;50.426;15.352;2024-02-26T06:34:23;96856.44;;;4.92;97.64
77799;BME280;66989;50.426;15.352;2024-02-26T06:36:48;96855.38;;;4.95;97.75
77799;BME280;66989;50.426;15.352;2024-02-26T06:39:14;96868.91;;;5.00;97.20
77799;BME280;66989;50.426;15.352;2024-02-26T06:41:45;96858.22;;;5.03;97.31
77799;BME280;66989;50.426;15.352;2024-02-26T06:44:13;96860.63;;;5.06;97.35
77799;BME280;66989;50.426;15.352;2024-02-26T06:46:41;96862.16;;;5.08;97.14
77799;BME280;66989;50.426;15.352;2024-02-26T06:49:06;96868.00;;;5.12;96.67
77799;BME280;66989;50.426;15.352;2024-02-26T06:51:32;96868.59;;;5.16;96.88
77799;BME280;66989;50.426;15.352;2024-02-26T06:53:58;96872.63;;;5.20;96.31
77799;BME280;66989;50.426;15.352;2024-02-26T06:56:23;96873.22;;;5.23;96.24
77799;BME280;66989;50.426;15.352;2024-02-26T06:58:48;96874.78;;;5.26;96.22
77799;BME280;66989;50.426;15.352;2024-02-26T07:01:14;96877.97;;;5.29;95.79
77799;BME280;66989;50.426;15.352;2024-02-26T07:03:40;96875.97;;;5.33;95.92
77799;BME280;66989;50.426;15.352;2024-02-26T07:06:06;96876.66;;;5.35;95.69
77799;BME280;66989;50.426;15.352;2024-02-26T07:08:32;96870.25;;;5.39;95.50
77799;BME280;66989;50.426;15.352;2024-02-26T07:10:57;96876.09;;;5.43;95.33
77799;BME280;66989;50.426;15.352;2024-02-26T07:13:22;96873.22;;;5.46;95.18
77799;BME280;66989;50.426;15.352;2024-02-26T07:15:48;96870.38;;;5.49;95.14
77799;BME280;66989;50.426;15.352;2024-02-26T07:18:13;96870.88;;;5.54;94.95
77799;BME280;66989;50.426;15.352;2024-02-26T07:20:39;96869.78;;;5.56;95.00
77799;BME280;66989;50.426;15.352;2024-02-26T07:23:04;96863.50;;;5.59;94.94
77799;BME280;66989;50.426;15.352;2024-02-26T07:25:29;96864.09;;;5.62;94.64
77799;BME280;66989;50.426;15.352;2024-02-26T07:27:55;96866.72;;;5.62;94.34
77799;BME280;66989;50.426;15.352;2024-02-26T07:30:20;96865.50;;;5.66;94.66
77799;BME280;66989;50.426;15.352;2024-02-26T07:32:45;96867.06;;;5.69;94.46
77799;BME280;66989;50.426;15.352;2024-02-26T07:35:12;96857.06;;;5.74;94.44
77799;BME280;66989;50.426;15.352;2024-02-26T07:37:37;96852.44;;;5.78;93.99
77799;BME280;66989;50.426;15.352;2024-02-26T07:40:03;96853.97;;;5.80;93.93
77799;BME280;66989;50.426;15.352;2024-02-26T07:42:29;96855.38;;;5.84;93.79
77799;BME280;66989;50.426;15.352;2024-02-26T07:44:54;96864.75;;;5.87;93.81
77799;BME280;66989;50.426;15.352;2024-02-26T07:47:20;96862.97;;;5.87;93.28
77799;BME280;66989;50.426;15.352;2024-02-26T07:49:46;96851.94;;;5.84;93.34
77799;BME280;66989;50.426;15.352;2024-02-26T07:52:12;96857.75;;;5.87;93.67
77799;BME280;66989;50.426;15.352;2024-02-26T07:54:37;96857.38;;;5.92;93.67
77799;BME280;66989;50.426;15.352;2024-02-26T07:57:02;96852.03;;;5.94;93.14
77799;BME280;66989;50.426;15.352;2024-02-26T07:59:31;96863.91;;;5.98;93.26
77799;BME280;66989;50.426;15.352;2024-02-26T08:01:56;96866.41;;;5.99;93.17
77799;BME280;66989;50.426;15.352;2024-02-26T08:04:21;96870.81;;;5.99;92.75
77799;BME280;66989;50.426;15.352;2024-02-26T08:06:47;96877.59;;;6.01;92.53
77799;BME280;66989;50.426;15.352;2024-02-26T08:09:12;96873.44;;;5.99;92.82
77799;BME280;66989;50.426;15.352;2024-02-26T08:11:38;96876.06;;;5.99;92.73
77799;BME280;66989;50.426;15.352;2024-02-26T08:14:03;96869.72;;;6.01;92.57
77799;BME280;66989;50.426;15.352;2024-02-26T08:16:28;96865.31;;;6.02;92.90
77799;BME280;66989;50.426;15.352;2024-02-26T08:18:55;96863.53;;;6.02;92.79
77799;BME280;66989;50.426;15.352;2024-02-26T08:21:20;96865.09;;;6.05;92.62
77799;BME280;66989;50.426;15.352;2024-02-26T08:23:46;96864.00;;;6.07;92.38
77799;BME280;66989;50.426;15.352;2024-02-26T08:26:11;96869.00;;;6.10;92.52
77799;BME280;66989;50.426;15.352;2024-02-26T08:28:37;96875.28;;;6.19;92.11
77799;BME280;66989;50.426;15.352;2024-02-26T08:31:03;96870.75;;;6.21;91.93
77799;BME280;66989;50.426;15.352;2024-02-26T08:33:28;96873.59;;;6.29;91.56
77799;BME280;66989;50.426;15.352;2024-02-26T08:35:54;96870.72;;;6.32;91.67
77799;BME280;66989;50.426;15.352;2024-02-26T08:38:19;96874.75;;;6.36;91.19
77799;BME280;66989;50.426;15.352;2024-02-26T08:40:44;96873.56;;;6.40;90.99
77799;BME280;66989;50.426;15.352;2024-02-26T08:43:10;96876.38;;;6.49;91.06
77799;BME280;66989;50.426;15.352;2024-02-26T08:45:35;96878.38;;;6.56;90.76
77799;BME280;66989;50.426;15.352;2024-02-26T08:48:00;96881.19;;;6.64;90.42
77799;BME280;66989;50.426;15.352;2024-02-26T08:50:26;96877.69;;;6.75;90.28
77799;BME280;66989;50.426;15.352;2024-02-26T08:52:52;96880.13;;;6.88;89.86
77799;BME280;66989;50.426;15.352;2024-02-26T08:55:18;96885.06;;;7.02;89.72
77799;BME280;66989;50.426;15.352;2024-02-26T08:57:44;96874.75;;;7.10;88.52
77799;BME280;66989;50.426;15.352;2024-02-26T09:00:10;96883.41;;;7.22;88.46
77799;BME280;66989;50.426;15.352;2024-02-26T09:02:36;96876.91;;;7.26;87.97
77799;BME280;66989;50.426;15.352;2024-02-26T09:05:05;96882.59;;;7.31;88.06
77799;BME280;66989;50.426;15.352;2024-02-26T09:07:30;96875.44;;;7.33;87.46
77799;BME280;66989;50.426;15.352;2024-02-26T09:09:56;96880.84;;;7.41;87.09
77799;BME280;66989;50.426;15.352;2024-02-26T09:12:21;96880.47;;;7.46;86.99
77799;BME280;66989;50.426;15.352;2024-02-26T09:14:47;96883.66;;;7.49;86.75
77799;BME280;66989;50.426;15.352;2024-02-26T09:17:12;96878.72;;;7.56;86.19
77799;BME280;66989;50.426;15.352;2024-02-26T09:19:38;96879.19;;;7.71;85.95
77799;BME280;66989;50.426;15.352;2024-02-26T09:22:03;96878.97;;;7.84;85.47
77799;BME280;66989;50.426;15.352;2024-02-26T09:24:29;96880.81;;;7.93;84.89
77799;BME280;66989;50.426;15.352;2024-02-26T09:26:55;96888.13;;;7.89;84.67
77799;BME280;66989;50.426;15.352;2024-02-26T09:29:20;96884.09;;;7.85;84.52
77799;BME280;66989;50.426;15.352;2024-02-26T09:31:45;96881.78;;;7.92;85.06
77799;BME280;66989;50.426;15.352;2024-02-26T09:34:13;96882.66;;;8.02;84.63
77799;BME280;66989;50.426;15.352;2024-02-26T09:36:38;96879.34;;;8.10;84.62
77799;BME280;66989;50.426;15.352;2024-02-26T09:39:04;96876.72;;;8.10;84.27
77799;BME280;66989;50.426;15.352;2024-02-26T09:41:30;96875.78;;;8.20;83.75
77799;BME280;66989;50.426;15.352;2024-02-26T09:43:56;96874.03;;;8.31;84.16
77799;BME280;66989;50.426;15.352;2024-02-26T09:46:23;96881.03;;;8.30;83.41
77799;BME280;66989;50.426;15.352;2024-02-26T09:48:49;96877.19;;;8.34;82.96
77799;BME280;66989;50.426;15.352;2024-02-26T09:51:15;96880.94;;;8.41;82.95
77799;BME280;66989;50.426;15.352;2024-02-26T09:53:42;96878.59;;;8.48;82.55
77799;BME280;66989;50.426;15.352;2024-02-26T09:56:09;96882.31;;;8.55;82.51
77799;BME280;66989;50.426;15.352;2024-02-26T09:58:36;96875.00;;;8.59;82.08
77799;BME280;66989;50.426;15.352;2024-02-26T10:01:02;96879.00;;;8.82;81.39
77799;BME280;66989;50.426;15.352;2024-02-26T10:03:34;96879.69;;;8.94;80.21
77799;BME280;66989;50.426;15.352;2024-02-26T10:06:03;96875.19;;;9.23;80.42
77799;BME280;66989;50.426;15.352;2024-02-26T10:08:31;96880.97;;;9.46;78.51
77799;BME280;66989;50.426;15.352;2024-02-26T10:10:56;96877.50;;;9.83;77.52
77799;BME280;66989;50.426;15.352;2024-02-26T10:13:22;96867.75;;;10.21;75.28
77799;BME280;66989;50.426;15.352;2024-02-26T10:15:48;96873.78;;;10.31;74.76
77799;BME280;66989;50.426;15.352;2024-02-26T10:18:13;96877.28;;;10.22;74.58
77799;BME280;66989;50.426;15.352;2024-02-26T10:20:39;96875.41;;;10.42;74.33
77799;BME280;66989;50.426;15.352;2024-02-26T10:23:04;96872.56;;;10.71;73.80
77799;BME280;66989;50.426;15.352;2024-02-26T10:25:30;96873.22;;;10.73;72.26
77799;BME280;66989;50.426;15.352;2024-02-26T10:28:00;96878.13;;;10.68;72.24
77799;BME280;66989;50.426;15.352;2024-02-26T10:30:28;96882.06;;;10.64;71.46
77799;BME280;66989;50.426;15.352;2024-02-26T10:32:54;96888.59;;;10.32;72.54
77799;BME280;66989;50.426;15.352;2024-02-26T10:35:19;96897.44;;;9.86;73.29
77799;BME280;66989;50.426;15.352;2024-02-26T10:37:49;96892.84;;;9.60;74.65
77799;BME280;66989;50.426;15.352;2024-02-26T10:40:15;96891.31;;;9.57;75.38
77799;BME280;66989;50.426;15.352;2024-02-26T10:42:42;96895.91;;;9.55;75.50
77799;BME280;66989;50.426;15.352;2024-02-26T10:45:09;96891.69;;;9.72;74.41
77799;BME280;66989;50.426;15.352;2024-02-26T10:47:35;96899.16;;;9.77;74.17
77799;BME280;66989;50.426;15.352;2024-02-26T10:50:05;96890.03;;;9.99;74.05
77799;BME280;66989;50.426;15.352;2024-02-26T10:52:32;96886.88;;;10.23;72.46
77799;BME280;66989;50.426;15.352;2024-02-26T10:55:04;96882.28;;;10.25;68.36
77799;BME280;66989;50.426;15.352;2024-02-26T10:57:35;96890.75;;;10.46;66.82
77799;BME280;66989;50.426;15.352;2024-02-26T11:00:03;96873.69;;;10.68;66.59
77799;BME280;66989;50.426;15.352;2024-02-26T11:02:34;96872.63;;;10.61;67.47
77799;BME280;66989;50.426;15.352;2024-02-26T11:05:03;96883.19;;;10.61;67.26
77799;BME280;66989;50.426;15.352;2024-02-26T11:07:32;96884.75;;;10.54;67.16
77799;BME280;66989;50.426;15.352;2024-02-26T11:10:01;96883.34;;;10.32;67.90
77799;BME280;66989;50.426;15.352;2024-02-26T11:12:32;96890.16;;;10.07;67.67
77799;BME280;66989;50.426;15.352;2024-02-26T11:14:59;96892.47;;;9.82;68.13
77799;BME280;66989;50.426;15.352;2024-02-26T11:17:27;96886.69;;;9.69;69.52
77799;BME280;66989;50.426;15.352;2024-02-26T11:19:56;96880.75;;;9.67;69.59
77799;BME280;66989;50.426;15.352;2024-02-26T11:22:24;96887.81;;;9.76;69.96
77799;BME280;66989;50.426;15.352;2024-02-26T11:24:52;96889.69;;;9.84;69.67
77799;BME280;66989;50.426;15.352;2024-02-26T11:27:18;96886.84;;;9.68;70.49
77799;BME280;66989;50.426;15.352;2024-02-26T11:29:47;96892.28;;;9.56;70.34
77799;BME280;66989;50.426;15.352;2024-02-26T11:32:14;96892.88;;;9.50;70.39
77799;BME280;66989;50.426;15.352;2024-02-26T11:34:40;96891.53;;;9.27;71.80
77799;BME280;66989;50.426;15.352;2024-02-26T11:37:14;96888.91;;;9.27;72.25
77799;BME280;66989;50.426;15.352;2024-02-26T11:39:41;96888.91;;;9.17;71.48
77799;BME280;66989;50.426;15.352;2024-02-26T11:42:13;96898.63;;;9.17;71.16
77799;BME280;66989;50.426;15.352;2024-02-26T11:44:39;96897.69;;;9.08;71.69
77799;BME280;66989;50.426;15.352;2024-02-26T11:47:11;96898.50;;;9.09;71.67
77799;BME280;66989;50.426;15.352;2024-02-26T11:49:37;96898.22;;;9.02;71.49
77799;BME280;66989;50.426;15.352;2024-02-26T11:52:06;96903.19;;;8.95;72.32
77799;BME280;66989;50.426;15.352;2024-02-26T11:57:49;96892.69;;;9.05;73.08
77799;BME280;66989;50.426;15.352;2024-02-26T12:00:16;96897.38;;;9.21;72.90
77799;BME280;66989;50.426;15.352;2024-02-26T12:02:49;96893.09;;;9.20;71.92
77799;BME280;66989;50.426;15.352;2024-02-26T12:05:20;96884.66;;;9.07;71.63
77799;BME280;66989;50.426;15.352;2024-02-26T12:07:46;96893.81;;;8.93;70.83
77799;BME280;66989;50.426;15.352;2024-02-26T12:10:27;96890.75;;;8.97;70.58
77799;BME280;66989;50.426;15.352;2024-02-26T12:13:00;96897.53;;;9.00;71.50
77799;BME280;66989;50.426;15.352;2024-02-26T12:15:36;96892.53;;;9.16;70.90
77799;BME280;66989;50.426;15.352;2024-02-26T12:18:03;96884.06;;;9.13;71.37
77799;BME280;66989;50.426;15.352;2024-02-26T12:20:29;96882.97;;;9.25;71.91
77799;BME280;66989;50.426;15.352;2024-02-26T12:22:55;96891.66;;;9.35;70.55
77799;BME280;66989;50.426;15.352;2024-02-26T12:25:24;96897.38;;;9.21;70.79
77799;BME280;66989;50.426;15.352;2024-02-26T12:27:50;96903.59;;;9.20;69.97
77799;BME280;66989;50.426;15.352;2024-02-26T12:30:16;96900.66;;;9.32;70.44
77799;BME280;66989;50.426;15.352;2024-02-26T12:32:42;96893.81;;;9.49;70.43
77799;BME280;66989;50.426;15.352;2024-02-26T12:35:07;96899.84;;;9.69;68.63
77799;BME280;66989;50.426;15.352;2024-02-26T12:37:33;96895.47;;;9.60;67.68
77799;BME280;66989;50.426;15.352;2024-02-26T12:40:01;96892.69;;;9.62;68.52
77799;BME280;66989;50.426;15.352;2024-02-26T12:42:27;96890.72;;;9.73;67.31
77799;BME280;66989;50.426;15.352;2024-02-26T12:44:52;96892.63;;;9.81;66.49
77799;BME280;66989;50.426;15.352;2024-02-26T12:47:18;96893.72;;;9.78;66.78
77799;BME280;66989;50.426;15.352;2024-02-26T12:49:47;96899.97;;;9.77;67.22
77799;BME280;66989;50.426;15.352;2024-02-26T12:52:12;96896.34;;;9.88;67.30